Umar1 — 9HA2498 — position and weather

sailwx.info

Track history (hours):
 
Tides and Currents Weather Stations Pressure Air Temp Water Temp Dewpoint Dewpoint Depression Visibility Wind Speed Wind Dir Waves Ship Positions

Umar1

Last reported at 2018-Jan-21 00:59 UTC. Time now 2018-Jan-21 01:13 UTC.
Position N 51°20' E 002°32'.

Length 100 m; draft 5.9 m.

Type: Ship (hazmat cat B). MMSI: 248751000.

Date/timePositionNaut miles runAvg speedWind from/ knotsBaromVisibWave heightAir tempDewpointWater temp
2018-Jan-21 00:59N 51°20' E 002°32'0 0.1
2018-Jan-21 00:20N 51°20' E 002°32'0 0.1
2018-Jan-20 23:53N 51°20' E 002°32'0 0.0
2018-Jan-20 23:29N 51°20' E 002°32'0 0.0
2018-Jan-20 22:59N 51°20' E 002°32'0 0.0
2018-Jan-20 22:29N 51°20' E 002°32'0 0.0
2018-Jan-20 21:56N 51°20' E 002°32'0 0.0
2018-Jan-20 21:29N 51°20' E 002°32'0 0.0
2018-Jan-20 20:59N 51°20' E 002°32'0 0.0
2018-Jan-20 20:29N 51°20' E 002°32'0 0.1
2018-Jan-20 19:59N 51°20' E 002°32'0 0.0
2018-Jan-20 19:29N 51°20' E 002°32'0 0.0
2018-Jan-20 18:59N 51°20' E 002°32'0 0.1
2018-Jan-20 18:29N 51°20' E 002°32'0 0.0
2018-Jan-20 17:59N 51°20' E 002°32'0 0.0
2018-Jan-20 17:29N 51°20' E 002°32'0 0.1
2018-Jan-20 16:59N 51°20' E 002°32'0 0.0
2018-Jan-20 16:29N 51°20' E 002°32'0 0.0
2018-Jan-20 15:59N 51°20' E 002°32'0 0.0
2018-Jan-20 15:29N 51°20' E 002°32'0 0.0
2018-Jan-20 14:59N 51°20' E 002°32'0 0.0
2018-Jan-20 14:29N 51°20' E 002°32'0 0.0
2018-Jan-20 13:59N 51°20' E 002°32'0 0.0
2018-Jan-20 13:29N 51°20' E 002°32'0 0.0
2018-Jan-20 12:59N 51°20' E 002°32'0 0.2
2018-Jan-20 12:29N 51°20' E 002°32'0 0.1
2018-Jan-20 11:59N 51°20' E 002°32'0 0.0
2018-Jan-20 11:29N 51°20' E 002°32'0 0.0
2018-Jan-20 10:59N 51°20' E 002°32'0 0.0
2018-Jan-20 10:29N 51°20' E 002°32'0 0.0
2018-Jan-20 09:59N 51°20' E 002°32'0 0.0
2018-Jan-20 09:29N 51°20' E 002°32'0 0.0
2018-Jan-20 08:59N 51°20' E 002°32'0 0.1
2018-Jan-20 08:23N 51°20' E 002°32'0 0.2
2018-Jan-20 07:59N 51°20' E 002°32'0 0.1
2018-Jan-20 07:29N 51°20' E 002°32'0 0.1
2018-Jan-20 06:59N 51°20' E 002°32'0 0.1
2018-Jan-20 06:29N 51°20' E 002°32'0 0.1
2018-Jan-20 05:59N 51°20' E 002°32'0 0.0
2018-Jan-20 05:29N 51°20' E 002°32'0 0.0
2018-Jan-20 04:59N 51°20' E 002°32'0 0.0
2018-Jan-20 04:29N 51°20' E 002°32'0 0.0
2018-Jan-20 03:59N 51°20' E 002°32'0 0.0
2018-Jan-20 03:29N 51°20' E 002°32'0 0.0
2018-Jan-20 02:59N 51°20' E 002°32'0 0.2
2018-Jan-20 02:28N 51°20' E 002°32'2 4.3
2018-Jan-20 02:00N 51°22' E 002°33'712.6
2018-Jan-20 01:29N 51°20' E 002°23'1112.8
2018-Jan-20 00:39N 51°15' E 002°07'212.5
2018-Jan-20 00:29N 51°14' E 002°04'612.5
2018-Jan-20 00:01N 51°11' E 001°56'611.6
2018-Jan-19 23:30N 51°08' E 001°49'510.9
2018-Jan-19 23:00N 51°04' E 001°43'15110.3
2018-Jan-19 08:22N 49°60' W 001°51'614.2
2018-Jan-19 07:58N 49°58' W 002°00'  
2018-Jan-12 14:57N 43°22' W 003°06'0 0.0
2018-Jan-12 14:30N 43°22' W 003°06'0 0.0
2018-Jan-12 14:00N 43°22' W 003°06'0 0.0
2018-Jan-12 13:30N 43°22' W 003°06'0 0.0
2018-Jan-12 13:00N 43°22' W 003°06'0 0.0
2018-Jan-12 12:30N 43°22' W 003°06'0 0.0
2018-Jan-12 12:00N 43°22' W 003°06'0 0.0
2018-Jan-12 11:30N 43°22' W 003°06'0 0.0
2018-Jan-12 11:00N 43°22' W 003°06'1 1.5
2018-Jan-12 10:30N 43°22' W 003°05'4 8.0
2018-Jan-12 10:00N 43°26' W 003°07'1 2.3
2018-Jan-12 09:30N 43°27' W 003°08'3 5.5
2018-Jan-12 09:00N 43°29' W 003°11'0 0.7
2018-Jan-12 08:30N 43°29' W 003°10'1 1.6
2018-Jan-12 08:00N 43°29' W 003°09'1 1.5
2018-Jan-12 07:30N 43°29' W 003°08'1 1.5
2018-Jan-12 07:00N 43°29' W 003°07'1 1.4
2018-Jan-12 06:30N 43°29' W 003°06'0 0.8
2018-Jan-12 06:00N 43°29' W 003°07'2 3.9
2018-Jan-12 05:30N 43°29' W 003°09'2 3.7
2018-Jan-12 05:00N 43°30' W 003°12'1 2.9
2018-Jan-12 04:30N 43°31' W 003°13'2 3.4
2018-Jan-12 03:59N 43°32' W 003°15'2 3.7
2018-Jan-12 03:30N 43°32' W 003°18'1 1.4
2018-Jan-12 02:59N 43°32' W 003°17'1 1.5
2018-Jan-12 02:30N 43°32' W 003°16'1 1.5
2018-Jan-12 02:00N 43°32' W 003°15'1 1.6
2018-Jan-12 01:30N 43°32' W 003°14'1 1.7
2018-Jan-12 01:00N 43°31' W 003°13'1 1.6
2018-Jan-12 00:30N 43°31' W 003°12'1 1.7
2018-Jan-12 00:00N 43°31' W 003°10'1 1.6
2018-Jan-11 23:30N 43°31' W 003°09'1 1.6
2018-Jan-11 23:00N 43°30' W 003°08'3 0.8
2018-Jan-11 19:44N 43°32' W 003°11'1 5.2
2018-Jan-11 19:30N 43°32' W 003°13'2 4.6
2018-Jan-11 19:00N 43°32' W 003°16'3 4.7
2018-Jan-11 18:25N 43°32' W 003°20'1 3.4
2018-Jan-11 18:00N 43°32' W 003°22'1 1.7
2018-Jan-11 17:29N 43°32' W 003°21'1 1.2
2018-Jan-11 17:01N 43°32' W 003°20'1 1.2
2018-Jan-11 16:31N 43°31' W 003°19'0 0.9
2018-Jan-11 16:00N 43°31' W 003°19'0 0.7
2018-Jan-11 15:30N 43°31' W 003°19'0 0.4
2018-Jan-11 15:00N 43°31' W 003°18'0 0.7
2018-Jan-11 14:31N 43°30' W 003°18'0 0.5
2018-Jan-11 14:01N 43°30' W 003°18'1 1.7
2018-Jan-11 13:31N 43°30' W 003°17'1 1.5
2018-Jan-11 13:00N 43°30' W 003°16'1 1.3
2018-Jan-11 12:30N 43°29' W 003°15'1 1.8
2018-Jan-11 12:00N 43°29' W 003°14'1 1.1
2018-Jan-11 11:30N 43°29' W 003°13'1 1.5
2018-Jan-11 11:00N 43°29' W 003°12'1 1.4
2018-Jan-11 10:28N 43°29' W 003°13'0 0.6
2018-Jan-11 10:00N 43°29' W 003°13'1 1.9
2018-Jan-11 09:30N 43°30' W 003°12'1 1.7
2018-Jan-11 09:00N 43°31' W 003°12'3 1.0
2018-Jan-11 06:06N 43°30' W 003°08'0 2.1
2018-Jan-11 06:00N 43°30' W 003°07'1 1.5
2018-Jan-11 05:30N 43°29' W 003°07'3 5.0
2018-Jan-11 05:00N 43°31' W 003°10'3 5.1
2018-Jan-11 04:30N 43°32' W 003°13'1 1.8
2018-Jan-11 03:57N 43°33' W 003°14'1 1.3
2018-Jan-11 03:30N 43°32' W 003°14'1 1.4
2018-Jan-11 02:59N 43°31' W 003°14'1 1.3
2018-Jan-11 02:30N 43°31' W 003°14'0 0.8
2018-Jan-11 02:00N 43°30' W 003°14'0 0.6
2018-Jan-11 01:30N 43°30' W 003°14'0 0.7
2018-Jan-11 01:00N 43°30' W 003°14'  
Track history (hours):
 
Tides and Currents Weather Stations Pressure Air Temp Water Temp Dewpoint Dewpoint Depression Visibility Wind Speed Wind Dir Waves Ship Positions

Umar1

Last reported at 2018-Jan-21 00:59 UTC. Time now 2018-Jan-21 01:13 UTC.
Position N 51°20' E 002°32'.

Length 100 m; draft 5.9 m.

Type: Ship (hazmat cat B). MMSI: 248751000.

Date/timePositionNaut miles runAvg speedWind from/ knotsBaromVisibWave heightAir tempDewpointWater temp
2018-Jan-21 00:59N 51°20' E 002°32'0 0.1
2018-Jan-21 00:20N 51°20' E 002°32'0 0.1
2018-Jan-20 23:53N 51°20' E 002°32'0 0.0
2018-Jan-20 23:29N 51°20' E 002°32'0 0.0
2018-Jan-20 22:59N 51°20' E 002°32'0 0.0
2018-Jan-20 22:29N 51°20' E 002°32'0 0.0
2018-Jan-20 21:56N 51°20' E 002°32'0 0.0
2018-Jan-20 21:29N 51°20' E 002°32'0 0.0
2018-Jan-20 20:59N 51°20' E 002°32'0 0.0
2018-Jan-20 20:29N 51°20' E 002°32'0 0.1
2018-Jan-20 19:59N 51°20' E 002°32'0 0.0
2018-Jan-20 19:29N 51°20' E 002°32'0 0.0
2018-Jan-20 18:59N 51°20' E 002°32'0 0.1
2018-Jan-20 18:29N 51°20' E 002°32'0 0.0
2018-Jan-20 17:59N 51°20' E 002°32'0 0.0
2018-Jan-20 17:29N 51°20' E 002°32'0 0.1
2018-Jan-20 16:59N 51°20' E 002°32'0 0.0
2018-Jan-20 16:29N 51°20' E 002°32'0 0.0
2018-Jan-20 15:59N 51°20' E 002°32'0 0.0
2018-Jan-20 15:29N 51°20' E 002°32'0 0.0
2018-Jan-20 14:59N 51°20' E 002°32'0 0.0
2018-Jan-20 14:29N 51°20' E 002°32'0 0.0
2018-Jan-20 13:59N 51°20' E 002°32'0 0.0
2018-Jan-20 13:29N 51°20' E 002°32'0 0.0
2018-Jan-20 12:59N 51°20' E 002°32'0 0.2
2018-Jan-20 12:29N 51°20' E 002°32'0 0.1
2018-Jan-20 11:59N 51°20' E 002°32'0 0.0
2018-Jan-20 11:29N 51°20' E 002°32'0 0.0
2018-Jan-20 10:59N 51°20' E 002°32'0 0.0
2018-Jan-20 10:29N 51°20' E 002°32'0 0.0
2018-Jan-20 09:59N 51°20' E 002°32'0 0.0
2018-Jan-20 09:29N 51°20' E 002°32'0 0.0
2018-Jan-20 08:59N 51°20' E 002°32'0 0.1
2018-Jan-20 08:23N 51°20' E 002°32'0 0.2
2018-Jan-20 07:59N 51°20' E 002°32'0 0.1
2018-Jan-20 07:29N 51°20' E 002°32'0 0.1
2018-Jan-20 06:59N 51°20' E 002°32'0 0.1
2018-Jan-20 06:29N 51°20' E 002°32'0 0.1
2018-Jan-20 05:59N 51°20' E 002°32'0 0.0
2018-Jan-20 05:29N 51°20' E 002°32'0 0.0
2018-Jan-20 04:59N 51°20' E 002°32'0 0.0
2018-Jan-20 04:29N 51°20' E 002°32'0 0.0
2018-Jan-20 03:59N 51°20' E 002°32'0 0.0
2018-Jan-20 03:29N 51°20' E 002°32'0 0.0
2018-Jan-20 02:59N 51°20' E 002°32'0 0.2
2018-Jan-20 02:28N 51°20' E 002°32'2 4.3
2018-Jan-20 02:00N 51°22' E 002°33'712.6
2018-Jan-20 01:29N 51°20' E 002°23'1112.8
2018-Jan-20 00:39N 51°15' E 002°07'212.5
2018-Jan-20 00:29N 51°14' E 002°04'612.5
2018-Jan-20 00:01N 51°11' E 001°56'611.6
2018-Jan-19 23:30N 51°08' E 001°49'510.9
2018-Jan-19 23:00N 51°04' E 001°43'15110.3
2018-Jan-19 08:22N 49°60' W 001°51'614.2
2018-Jan-19 07:58N 49°58' W 002°00'  
2018-Jan-12 14:57N 43°22' W 003°06'0 0.0
2018-Jan-12 14:30N 43°22' W 003°06'0 0.0
2018-Jan-12 14:00N 43°22' W 003°06'0 0.0
2018-Jan-12 13:30N 43°22' W 003°06'0 0.0
2018-Jan-12 13:00N 43°22' W 003°06'0 0.0
2018-Jan-12 12:30N 43°22' W 003°06'0 0.0
2018-Jan-12 12:00N 43°22' W 003°06'0 0.0
2018-Jan-12 11:30N 43°22' W 003°06'0 0.0
2018-Jan-12 11:00N 43°22' W 003°06'1 1.5
2018-Jan-12 10:30N 43°22' W 003°05'4 8.0
2018-Jan-12 10:00N 43°26' W 003°07'1 2.3
2018-Jan-12 09:30N 43°27' W 003°08'3 5.5
2018-Jan-12 09:00N 43°29' W 003°11'0 0.7
2018-Jan-12 08:30N 43°29' W 003°10'1 1.6
2018-Jan-12 08:00N 43°29' W 003°09'1 1.5
2018-Jan-12 07:30N 43°29' W 003°08'1 1.5
2018-Jan-12 07:00N 43°29' W 003°07'1 1.4
2018-Jan-12 06:30N 43°29' W 003°06'0 0.8
2018-Jan-12 06:00N 43°29' W 003°07'2 3.9
2018-Jan-12 05:30N 43°29' W 003°09'2 3.7
2018-Jan-12 05:00N 43°30' W 003°12'1 2.9
2018-Jan-12 04:30N 43°31' W 003°13'2 3.4
2018-Jan-12 03:59N 43°32' W 003°15'2 3.7
2018-Jan-12 03:30N 43°32' W 003°18'1 1.4
2018-Jan-12 02:59N 43°32' W 003°17'1 1.5
2018-Jan-12 02:30N 43°32' W 003°16'1 1.5
2018-Jan-12 02:00N 43°32' W 003°15'1 1.6
2018-Jan-12 01:30N 43°32' W 003°14'1 1.7
2018-Jan-12 01:00N 43°31' W 003°13'1 1.6
2018-Jan-12 00:30N 43°31' W 003°12'1 1.7
2018-Jan-12 00:00N 43°31' W 003°10'1 1.6
2018-Jan-11 23:30N 43°31' W 003°09'1 1.6
2018-Jan-11 23:00N 43°30' W 003°08'3 0.8
2018-Jan-11 19:44N 43°32' W 003°11'1 5.2
2018-Jan-11 19:30N 43°32' W 003°13'2 4.6
2018-Jan-11 19:00N 43°32' W 003°16'3 4.7
2018-Jan-11 18:25N 43°32' W 003°20'1 3.4
2018-Jan-11 18:00N 43°32' W 003°22'1 1.7
2018-Jan-11 17:29N 43°32' W 003°21'1 1.2
2018-Jan-11 17:01N 43°32' W 003°20'1 1.2
2018-Jan-11 16:31N 43°31' W 003°19'0 0.9
2018-Jan-11 16:00N 43°31' W 003°19'0 0.7
2018-Jan-11 15:30N 43°31' W 003°19'0 0.4
2018-Jan-11 15:00N 43°31' W 003°18'0 0.7
2018-Jan-11 14:31N 43°30' W 003°18'0 0.5
2018-Jan-11 14:01N 43°30' W 003°18'1 1.7
2018-Jan-11 13:31N 43°30' W 003°17'1 1.5
2018-Jan-11 13:00N 43°30' W 003°16'1 1.3
2018-Jan-11 12:30N 43°29' W 003°15'1 1.8
2018-Jan-11 12:00N 43°29' W 003°14'1 1.1
2018-Jan-11 11:30N 43°29' W 003°13'1 1.5
2018-Jan-11 11:00N 43°29' W 003°12'1 1.4
2018-Jan-11 10:28N 43°29' W 003°13'0 0.6
2018-Jan-11 10:00N 43°29' W 003°13'1 1.9
2018-Jan-11 09:30N 43°30' W 003°12'1 1.7
2018-Jan-11 09:00N 43°31' W 003°12'3 1.0
2018-Jan-11 06:06N 43°30' W 003°08'0 2.1
2018-Jan-11 06:00N 43°30' W 003°07'1 1.5
2018-Jan-11 05:30N 43°29' W 003°07'3 5.0
2018-Jan-11 05:00N 43°31' W 003°10'3 5.1
2018-Jan-11 04:30N 43°32' W 003°13'1 1.8
2018-Jan-11 03:57N 43°33' W 003°14'1 1.3
2018-Jan-11 03:30N 43°32' W 003°14'1 1.4
2018-Jan-11 02:59N 43°31' W 003°14'1 1.3
2018-Jan-11 02:30N 43°31' W 003°14'0 0.8
2018-Jan-11 02:00N 43°30' W 003°14'0 0.6
2018-Jan-11 01:30N 43°30' W 003°14'0 0.7
2018-Jan-11 01:00N 43°30' W 003°14'  

Dump ship's entire track history